sensor_id;sensor_type;location;lat;lon;timestamp;pressure;altitude;pressure_sealevel;temperature;humidity
61906;BME280;47863;55.766;37.672;2023-04-21T00:02:06;100015.78;;;8.97;28.55
61906;BME280;47863;55.766;37.672;2023-04-21T00:04:32;100009.03;;;8.92;28.39
61906;BME280;47863;55.766;37.672;2023-04-21T00:06:58;100027.44;;;8.96;28.63
61906;BME280;47863;55.766;37.672;2023-04-21T00:09:26;100017.91;;;8.93;28.50
61906;BME280;47863;55.766;37.672;2023-04-21T00:11:52;100009.19;;;8.91;28.68
61906;BME280;47863;55.766;37.672;2023-04-21T00:14:18;100010.06;;;8.82;28.55
61906;BME280;47863;55.766;37.672;2023-04-21T00:16:44;100027.47;;;8.86;28.83
61906;BME280;47863;55.766;37.672;2023-04-21T00:19:09;100027.78;;;8.83;28.86
61906;BME280;47863;55.766;37.672;2023-04-21T00:21:38;100029.44;;;8.84;28.72
61906;BME280;47863;55.766;37.672;2023-04-21T00:24:04;99938.44;;;8.28;28.97
61906;BME280;47863;55.766;37.672;2023-04-21T00:26:30;100013.84;;;8.79;28.86
61906;BME280;47863;55.766;37.672;2023-04-21T00:28:55;100018.22;;;8.70;29.08
61906;BME280;47863;55.766;37.672;2023-04-21T00:31:21;100017.94;;;8.73;28.90
61906;BME280;47863;55.766;37.672;2023-04-21T00:33:47;100006.59;;;8.62;29.03
61906;BME280;47863;55.766;37.672;2023-04-21T00:36:12;100007.72;;;8.59;29.23
61906;BME280;47863;55.766;37.672;2023-04-21T00:38:38;99996.03;;;8.60;28.98
61906;BME280;47863;55.766;37.672;2023-04-21T00:41:03;99991.97;;;8.56;29.02
61906;BME280;47863;55.766;37.672;2023-04-21T00:43:29;99977.09;;;8.44;29.13
61906;BME280;47863;55.766;37.672;2023-04-21T00:45:55;99902.81;;;8.00;29.40
61906;BME280;47863;55.766;37.672;2023-04-21T00:48:20;99995.63;;;8.55;29.05
61906;BME280;47863;55.766;37.672;2023-04-21T00:50:46;99999.41;;;8.52;29.30
61906;BME280;47863;55.766;37.672;2023-04-21T00:53:13;99994.38;;;8.49;29.43
61906;BME280;47863;55.766;37.672;2023-04-21T00:55:40;100001.00;;;8.45;29.33
61906;BME280;47863;55.766;37.672;2023-04-21T00:58:05;99966.84;;;8.29;29.34
61906;BME280;47863;55.766;37.672;2023-04-21T01:00:31;99990.69;;;8.41;29.48
61906;BME280;47863;55.766;37.672;2023-04-21T01:02:58;99935.66;;;8.01;29.58
61906;BME280;47863;55.766;37.672;2023-04-21T01:05:24;99995.31;;;8.39;29.45
61906;BME280;47863;55.766;37.672;2023-04-21T01:07:50;99978.50;;;8.28;29.63
61906;BME280;47863;55.766;37.672;2023-04-21T01:10:16;99981.84;;;8.30;29.53
61906;BME280;47863;55.766;37.672;2023-04-21T01:12:43;99984.53;;;8.30;29.90
61906;BME280;47863;55.766;37.672;2023-04-21T01:15:10;99982.00;;;8.29;29.40
61906;BME280;47863;55.766;37.672;2023-04-21T01:17:36;99992.84;;;8.27;29.50
61906;BME280;47863;55.766;37.672;2023-04-21T01:20:07;99979.63;;;8.26;30.05
61906;BME280;47863;55.766;37.672;2023-04-21T01:22:36;99957.16;;;8.09;29.88
61906;BME280;47863;55.766;37.672;2023-04-21T01:25:02;99961.34;;;8.11;29.83
61906;BME280;47863;55.766;37.672;2023-04-21T01:27:30;99963.06;;;8.12;29.92
61906;BME280;47863;55.766;37.672;2023-04-21T01:29:56;99953.38;;;8.02;29.65
61906;BME280;47863;55.766;37.672;2023-04-21T01:32:25;99960.94;;;8.06;29.97
61906;BME280;47863;55.766;37.672;2023-04-21T01:34:52;99985.22;;;8.13;30.12
61906;BME280;47863;55.766;37.672;2023-04-21T01:37:20;99970.34;;;8.10;30.08
61906;BME280;47863;55.766;37.672;2023-04-21T01:39:49;99976.13;;;8.06;29.96
61906;BME280;47863;55.766;37.672;2023-04-21T01:42:20;99980.06;;;8.02;30.17
61906;BME280;47863;55.766;37.672;2023-04-21T01:44:47;99969.66;;;7.99;30.01
61906;BME280;47863;55.766;37.672;2023-04-21T01:47:14;99967.25;;;7.95;29.84
61906;BME280;47863;55.766;37.672;2023-04-21T01:49:40;99975.97;;;7.88;29.87
61906;BME280;47863;55.766;37.672;2023-04-21T01:52:06;99934.38;;;7.56;30.02
61906;BME280;47863;55.766;37.672;2023-04-21T01:54:32;99972.44;;;7.78;30.63
61906;BME280;47863;55.766;37.672;2023-04-21T01:56:57;99972.72;;;7.74;30.30
61906;BME280;47863;55.766;37.672;2023-04-21T01:59:23;99962.44;;;7.70;30.43
61906;BME280;47863;55.766;37.672;2023-04-21T02:01:49;99971.72;;;7.75;30.12
61906;BME280;47863;55.766;37.672;2023-04-21T02:04:14;99940.41;;;7.58;30.22
61906;BME280;47863;55.766;37.672;2023-04-21T02:06:40;99980.72;;;7.74;30.22
61906;BME280;47863;55.766;37.672;2023-04-21T02:09:06;99972.16;;;7.71;30.41
61906;BME280;47863;55.766;37.672;2023-04-21T02:11:31;99977.63;;;7.69;30.24
61906;BME280;47863;55.766;37.672;2023-04-21T02:13:57;99958.66;;;7.53;30.53
61906;BME280;47863;55.766;37.672;2023-04-21T02:16:24;99959.78;;;7.60;30.50
61906;BME280;47863;55.766;37.672;2023-04-21T02:18:53;99961.47;;;7.61;30.69
61906;BME280;47863;55.766;37.672;2023-04-21T02:21:20;99959.63;;;7.62;30.27
61906;BME280;47863;55.766;37.672;2023-04-21T02:23:49;99975.66;;;7.71;30.41
61906;BME280;47863;55.766;37.672;2023-04-21T02:26:16;99976.34;;;7.73;30.25
61906;BME280;47863;55.766;37.672;2023-04-21T02:28:41;99972.59;;;7.76;30.24
61906;BME280;47863;55.766;37.672;2023-04-21T02:31:07;99976.94;;;7.77;30.41
61906;BME280;47863;55.766;37.672;2023-04-21T02:33:33;99979.47;;;7.79;30.64
61906;BME280;47863;55.766;37.672;2023-04-21T02:35:59;99974.97;;;7.79;30.42
61906;BME280;47863;55.766;37.672;2023-04-21T02:38:25;99979.16;;;7.82;30.41
61906;BME280;47863;55.766;37.672;2023-04-21T02:40:50;99978.19;;;7.83;30.61
61906;BME280;47863;55.766;37.672;2023-04-21T02:43:16;99973.56;;;7.85;30.37
61906;BME280;47863;55.766;37.672;2023-04-21T02:45:42;99964.72;;;7.74;30.39
61906;BME280;47863;55.766;37.672;2023-04-21T02:48:07;99946.06;;;7.65;30.34
61906;BME280;47863;55.766;37.672;2023-04-21T02:50:34;99951.78;;;7.70;30.37
61906;BME280;47863;55.766;37.672;2023-04-21T02:53:00;99978.66;;;7.88;30.56
61906;BME280;47863;55.766;37.672;2023-04-21T02:55:25;99973.84;;;7.82;30.53
61906;BME280;47863;55.766;37.672;2023-04-21T02:57:51;99986.47;;;7.89;30.68
61906;BME280;47863;55.766;37.672;2023-04-21T03:00:17;99981.44;;;7.86;30.72
61906;BME280;47863;55.766;37.672;2023-04-21T03:02:42;99980.31;;;7.89;30.79
61906;BME280;47863;55.766;37.672;2023-04-21T03:05:09;99974.97;;;7.89;30.71
61906;BME280;47863;55.766;37.672;2023-04-21T03:07:34;99978.47;;;7.89;30.96
61906;BME280;47863;55.766;37.672;2023-04-21T03:10:01;99961.50;;;7.81;30.76
61906;BME280;47863;55.766;37.672;2023-04-21T03:12:28;99984.13;;;7.96;30.88
61906;BME280;47863;55.766;37.672;2023-04-21T03:14:54;99988.88;;;8.02;30.80
61906;BME280;47863;55.766;37.672;2023-04-21T03:17:20;99911.09;;;7.68;30.68
61906;BME280;47863;55.766;37.672;2023-04-21T03:19:46;99987.91;;;8.13;30.72
61906;BME280;47863;55.766;37.672;2023-04-21T03:22:11;99988.19;;;8.20;30.97
61906;BME280;47863;55.766;37.672;2023-04-21T03:24:37;99963.19;;;8.01;30.93
61906;BME280;47863;55.766;37.672;2023-04-21T03:27:04;99990.88;;;8.20;31.16
61906;BME280;47863;55.766;37.672;2023-04-21T03:29:30;99991.41;;;8.23;30.73
61906;BME280;47863;55.766;37.672;2023-04-21T03:31:56;99995.06;;;8.22;31.00
61906;BME280;47863;55.766;37.672;2023-04-21T03:34:21;99998.88;;;8.20;30.79
61906;BME280;47863;55.766;37.672;2023-04-21T03:36:47;99998.00;;;8.19;30.88
61906;BME280;47863;55.766;37.672;2023-04-21T03:39:12;99996.72;;;8.23;31.02
61906;BME280;47863;55.766;37.672;2023-04-21T03:41:38;99983.00;;;8.18;30.83
61906;BME280;47863;55.766;37.672;2023-04-21T03:44:04;99913.78;;;7.87;30.63
61906;BME280;47863;55.766;37.672;2023-04-21T03:46:29;99989.31;;;8.46;31.06
61906;BME280;47863;55.766;37.672;2023-04-21T03:48:55;99977.81;;;8.46;30.59
61906;BME280;47863;55.766;37.672;2023-04-21T03:51:20;99953.19;;;8.32;30.70
61906;BME280;47863;55.766;37.672;2023-04-21T03:53:46;99989.03;;;8.59;30.70
61906;BME280;47863;55.766;37.672;2023-04-21T03:56:11;99986.34;;;8.59;30.70
61906;BME280;47863;55.766;37.672;2023-04-21T03:58:37;99964.31;;;8.47;31.09
61906;BME280;47863;55.766;37.672;2023-04-21T04:01:06;99905.16;;;8.23;30.97
61906;BME280;47863;55.766;37.672;2023-04-21T04:03:32;99969.56;;;8.77;31.02
61906;BME280;47863;55.766;37.672;2023-04-21T04:05:58;99962.66;;;8.84;30.95
61906;BME280;47863;55.766;37.672;2023-04-21T04:08:24;99953.66;;;8.95;31.02
61906;BME280;47863;55.766;37.672;2023-04-21T04:10:49;99971.13;;;9.17;30.70
61906;BME280;47863;55.766;37.672;2023-04-21T04:13:15;99960.56;;;9.15;30.44
61906;BME280;47863;55.766;37.672;2023-04-21T04:15:41;99971.47;;;9.31;30.63
61906;BME280;47863;55.766;37.672;2023-04-21T04:18:06;99977.22;;;9.37;30.70
61906;BME280;47863;55.766;37.672;2023-04-21T04:20:32;99976.75;;;9.41;30.62
61906;BME280;47863;55.766;37.672;2023-04-21T04:22:57;99951.78;;;9.32;30.78
61906;BME280;47863;55.766;37.672;2023-04-21T04:25:23;99963.28;;;9.61;30.51
61906;BME280;47863;55.766;37.672;2023-04-21T04:27:49;99958.50;;;9.82;30.37
61906;BME280;47863;55.766;37.672;2023-04-21T04:30:15;99976.22;;;10.19;30.13
61906;BME280;47863;55.766;37.672;2023-04-21T04:32:41;99979.47;;;10.67;29.92
61906;BME280;47863;55.766;37.672;2023-04-21T04:35:08;99973.72;;;11.14;29.41
61906;BME280;47863;55.766;37.672;2023-04-21T04:37:37;99974.69;;;11.47;29.45
61906;BME280;47863;55.766;37.672;2023-04-21T04:40:05;99961.63;;;11.61;29.31
61906;BME280;47863;55.766;37.672;2023-04-21T04:42:31;99981.72;;;11.91;29.25
61906;BME280;47863;55.766;37.672;2023-04-21T04:44:58;99956.19;;;11.87;29.39
61906;BME280;47863;55.766;37.672;2023-04-21T04:47:26;99977.19;;;12.08;29.53
61906;BME280;47863;55.766;37.672;2023-04-21T04:49:51;99963.25;;;11.96;29.50
61906;BME280;47863;55.766;37.672;2023-04-21T04:52:17;99984.78;;;12.13;29.47
61906;BME280;47863;55.766;37.672;2023-04-21T04:54:42;99979.03;;;12.16;29.69
61906;BME280;47863;55.766;37.672;2023-04-21T04:57:08;99981.94;;;12.22;29.49
61906;BME280;47863;55.766;37.672;2023-04-21T04:59:33;99971.00;;;12.32;29.57
61906;BME280;47863;55.766;37.672;2023-04-21T05:02:01;99938.78;;;12.16;29.55
61906;BME280;47863;55.766;37.672;2023-04-21T05:04:27;99958.22;;;12.34;29.55
61906;BME280;47863;55.766;37.672;2023-04-21T05:06:53;99973.03;;;12.46;29.56
61906;BME280;47863;55.766;37.672;2023-04-21T05:09:18;99966.97;;;12.53;29.34
61906;BME280;47863;55.766;37.672;2023-04-21T05:11:44;99964.91;;;12.71;29.48
61906;BME280;47863;55.766;37.672;2023-04-21T05:14:09;99947.59;;;12.82;29.29
61906;BME280;47863;55.766;37.672;2023-04-21T05:16:35;99934.59;;;13.02;29.14
61906;BME280;47863;55.766;37.672;2023-04-21T05:19:02;99959.03;;;13.40;28.78
61906;BME280;47863;55.766;37.672;2023-04-21T05:21:27;99934.59;;;13.49;28.86
61906;BME280;47863;55.766;37.672;2023-04-21T05:23:57;99946.78;;;13.68;29.02
61906;BME280;47863;55.766;37.672;2023-04-21T05:26:24;99952.22;;;13.83;29.08
61906;BME280;47863;55.766;37.672;2023-04-21T05:28:55;99952.09;;;14.00;28.76
61906;BME280;47863;55.766;37.672;2023-04-21T05:31:21;99939.53;;;14.15;28.73
61906;BME280;47863;55.766;37.672;2023-04-21T05:33:47;99913.25;;;14.17;28.69
61906;BME280;47863;55.766;37.672;2023-04-21T05:36:13;99944.41;;;14.58;28.54
61906;BME280;47863;55.766;37.672;2023-04-21T05:38:38;99938.41;;;14.85;28.20
61906;BME280;47863;55.766;37.672;2023-04-21T05:41:04;99940.44;;;15.13;28.00
61906;BME280;47863;55.766;37.672;2023-04-21T05:43:30;99938.47;;;15.37;27.94
61906;BME280;47863;55.766;37.672;2023-04-21T05:45:59;99940.44;;;15.64;27.51
61906;BME280;47863;55.766;37.672;2023-04-21T05:48:25;99939.56;;;15.94;27.44
61906;BME280;47863;55.766;37.672;2023-04-21T05:50:51;99923.91;;;16.11;27.32
61906;BME280;47863;55.766;37.672;2023-04-21T05:53:16;99938.75;;;16.43;26.91
61906;BME280;47863;55.766;37.672;2023-04-21T05:55:42;99913.34;;;16.37;26.99
61906;BME280;47863;55.766;37.672;2023-04-21T05:58:07;99942.19;;;16.58;26.76
61906;BME280;47863;55.766;37.672;2023-04-21T06:00:33;99938.50;;;16.66;27.00
61906;BME280;47863;55.766;37.672;2023-04-21T06:02:59;99936.72;;;16.80;26.60
61906;BME280;47863;55.766;37.672;2023-04-21T06:05:24;99926.47;;;17.03;26.37
61906;BME280;47863;55.766;37.672;2023-04-21T06:07:50;99913.97;;;17.44;25.92
61906;BME280;47863;55.766;37.672;2023-04-21T06:10:16;99927.06;;;18.02;25.57
61906;BME280;47863;55.766;37.672;2023-04-21T06:12:42;99921.63;;;18.42;25.29
61906;BME280;47863;55.766;37.672;2023-04-21T06:15:08;99915.53;;;18.93;24.86
61906;BME280;47863;55.766;37.672;2023-04-21T06:17:33;99920.13;;;19.58;24.43
61906;BME280;47863;55.766;37.672;2023-04-21T06:19:59;99921.91;;;20.09;24.20
61906;BME280;47863;55.766;37.672;2023-04-21T06:22:26;99922.88;;;20.47;23.95
61906;BME280;47863;55.766;37.672;2023-04-21T06:24:52;99923.94;;;20.71;23.89
61906;BME280;47863;55.766;37.672;2023-04-21T06:27:17;99927.22;;;20.79;23.64
61906;BME280;47863;55.766;37.672;2023-04-21T06:29:43;99925.78;;;20.95;23.20
61906;BME280;47863;55.766;37.672;2023-04-21T06:32:09;99924.72;;;21.33;23.28
61906;BME280;47863;55.766;37.672;2023-04-21T06:34:35;99922.25;;;21.81;22.92
61906;BME280;47863;55.766;37.672;2023-04-21T06:37:01;99911.16;;;22.06;22.28
61906;BME280;47863;55.766;37.672;2023-04-21T06:39:27;99927.38;;;22.43;21.98
61906;BME280;47863;55.766;37.672;2023-04-21T06:41:53;99911.72;;;23.09;21.58
61906;BME280;47863;55.766;37.672;2023-04-21T06:44:19;99915.94;;;24.48;20.32
61906;BME280;47863;55.766;37.672;2023-04-21T06:46:45;99912.75;;;26.01;19.29
61906;BME280;47863;55.766;37.672;2023-04-21T06:49:11;99900.00;;;27.60;18.47
61906;BME280;47863;55.766;37.672;2023-04-21T06:51:37;99917.50;;;29.38;18.20
61906;BME280;47863;55.766;37.672;2023-04-21T06:54:03;99914.22;;;31.13;17.34
61906;BME280;47863;55.766;37.672;2023-04-21T06:56:29;99906.84;;;32.60;16.39
61906;BME280;47863;55.766;37.672;2023-04-21T06:58:55;99909.31;;;33.95;15.29
61906;BME280;47863;55.766;37.672;2023-04-21T07:01:21;99913.19;;;35.25;15.23
61906;BME280;47863;55.766;37.672;2023-04-21T07:03:49;99909.00;;;36.41;14.72
61906;BME280;47863;55.766;37.672;2023-04-21T07:06:15;99908.59;;;37.16;14.03
61906;BME280;47863;55.766;37.672;2023-04-21T07:08:41;99910.09;;;37.85;13.83
61906;BME280;47863;55.766;37.672;2023-04-21T07:11:07;99911.88;;;38.44;13.27
61906;BME280;47863;55.766;37.672;2023-04-21T07:13:32;99884.78;;;38.81;12.60
61906;BME280;47863;55.766;37.672;2023-04-21T07:15:58;99896.81;;;39.43;12.44
61906;BME280;47863;55.766;37.672;2023-04-21T07:18:24;99902.63;;;40.03;11.58
61906;BME280;47863;55.766;37.672;2023-04-21T07:20:49;99900.94;;;40.43;11.26
61906;BME280;47863;55.766;37.672;2023-04-21T07:23:15;99877.31;;;40.76;10.84
61906;BME280;47863;55.766;37.672;2023-04-21T07:25:41;99901.56;;;41.32;10.39
61906;BME280;47863;55.766;37.672;2023-04-21T07:28:07;99895.56;;;41.69;9.96
61906;BME280;47863;55.766;37.672;2023-04-21T07:30:32;99885.94;;;41.89;9.68
61906;BME280;47863;55.766;37.672;2023-04-21T07:32:58;99875.50;;;41.90;9.71
61906;BME280;47863;55.766;37.672;2023-04-21T07:35:25;99884.31;;;42.08;9.38
61906;BME280;47863;55.766;37.672;2023-04-21T07:37:51;99898.66;;;42.22;8.84
61906;BME280;47863;55.766;37.672;2023-04-21T07:40:16;99896.28;;;42.24;8.58
61906;BME280;47863;55.766;37.672;2023-04-21T07:42:42;99891.00;;;42.42;8.64
61906;BME280;47863;55.766;37.672;2023-04-21T07:45:08;99883.38;;;42.43;8.38
61906;BME280;47863;55.766;37.672;2023-04-21T07:47:34;99866.41;;;42.39;8.26
61906;BME280;47863;55.766;37.672;2023-04-21T07:49:59;99880.56;;;42.43;7.99
61906;BME280;47863;55.766;37.672;2023-04-21T07:52:25;99874.03;;;42.58;7.72
61906;BME280;47863;55.766;37.672;2023-04-21T07:54:51;99877.16;;;43.03;8.05
61906;BME280;47863;55.766;37.672;2023-04-21T07:57:16;99868.59;;;43.22;7.64
61906;BME280;47863;55.766;37.672;2023-04-21T07:59:42;99865.38;;;43.50;7.76
61906;BME280;47863;55.766;37.672;2023-04-21T08:02:08;99873.00;;;43.76;6.92
61906;BME280;47863;55.766;37.672;2023-04-21T08:04:34;99870.41;;;43.98;7.38
61906;BME280;47863;55.766;37.672;2023-04-21T08:06:59;99874.28;;;44.17;7.04
61906;BME280;47863;55.766;37.672;2023-04-21T08:09:25;99841.78;;;44.33;6.83
61906;BME280;47863;55.766;37.672;2023-04-21T08:11:51;99860.59;;;44.63;6.38
61906;BME280;47863;55.766;37.672;2023-04-21T08:14:18;99860.31;;;44.76;6.85
61906;BME280;47863;55.766;37.672;2023-04-21T08:16:43;99860.78;;;44.85;6.81
61906;BME280;47863;55.766;37.672;2023-04-21T08:19:09;99850.59;;;44.69;6.29
61906;BME280;47863;55.766;37.672;2023-04-21T08:21:35;99840.25;;;44.40;6.77
61906;BME280;47863;55.766;37.672;2023-04-21T08:24:01;99850.84;;;44.50;6.25
61906;BME280;47863;55.766;37.672;2023-04-21T08:26:27;99862.06;;;44.46;6.32
61906;BME280;47863;55.766;37.672;2023-04-21T08:28:55;99850.59;;;44.28;6.06
61906;BME280;47863;55.766;37.672;2023-04-21T08:31:21;99852.34;;;44.40;5.91
61906;BME280;47863;55.766;37.672;2023-04-21T08:33:47;99836.88;;;44.27;5.94
61906;BME280;47863;55.766;37.672;2023-04-21T08:36:13;99835.38;;;44.40;6.10
61906;BME280;47863;55.766;37.672;2023-04-21T08:38:42;99829.75;;;44.40;5.46
61906;BME280;47863;55.766;37.672;2023-04-21T08:41:09;99835.53;;;44.54;5.87
61906;BME280;47863;55.766;37.672;2023-04-21T08:43:35;99840.97;;;44.78;6.03
61906;BME280;47863;55.766;37.672;2023-04-21T08:46:07;99833.06;;;44.98;5.36
61906;BME280;47863;55.766;37.672;2023-04-21T08:48:37;99829.47;;;45.08;4.73
61906;BME280;47863;55.766;37.672;2023-04-21T08:51:05;99806.44;;;45.02;5.75
61906;BME280;47863;55.766;37.672;2023-04-21T08:53:32;99825.03;;;45.10;5.62
61906;BME280;47863;55.766;37.672;2023-04-21T08:56:01;99824.00;;;45.40;5.19
61906;BME280;47863;55.766;37.672;2023-04-21T08:58:26;99797.81;;;45.58;5.31
61906;BME280;47863;55.766;37.672;2023-04-21T09:00:52;99829.03;;;45.83;4.91
61906;BME280;47863;55.766;37.672;2023-04-21T09:03:22;99810.09;;;45.98;5.38
61906;BME280;47863;55.766;37.672;2023-04-21T09:06:00;99793.13;;;46.12;5.24
61906;BME280;47863;55.766;37.672;2023-04-21T09:08:27;99782.16;;;45.92;5.41
61906;BME280;47863;55.766;37.672;2023-04-21T09:10:55;99804.81;;;46.00;4.92
61906;BME280;47863;55.766;37.672;2023-04-21T09:13:28;99802.78;;;45.97;4.92
61906;BME280;47863;55.766;37.672;2023-04-21T09:15:54;99802.41;;;46.02;5.51
61906;BME280;47863;55.766;37.672;2023-04-21T09:18:25;99786.66;;;46.26;4.80
61906;BME280;47863;55.766;37.672;2023-04-21T09:21:08;99791.94;;;46.53;5.09
61906;BME280;47863;55.766;37.672;2023-04-21T09:23:49;99788.28;;;46.66;4.84
61906;BME280;47863;55.766;37.672;2023-04-21T09:26:16;99788.66;;;46.72;5.08
61906;BME280;47863;55.766;37.672;2023-04-21T09:28:43;99763.16;;;46.68;5.08
61906;BME280;47863;55.766;37.672;2023-04-21T09:31:17;99784.25;;;46.67;4.96
61906;BME280;47863;55.766;37.672;2023-04-21T09:33:53;99776.56;;;46.57;4.72
61906;BME280;47863;55.766;37.672;2023-04-21T09:36:23;99765.25;;;46.46;4.83
61906;BME280;47863;55.766;37.672;2023-04-21T09:41:19;99770.88;;;46.21;4.63
61906;BME280;47863;55.766;37.672;2023-04-21T09:43:46;99753.88;;;45.96;4.64
61906;BME280;47863;55.766;37.672;2023-04-21T09:46:12;99749.72;;;45.54;5.29
61906;BME280;47863;55.766;37.672;2023-04-21T09:48:43;99759.03;;;45.58;4.88
61906;BME280;47863;55.766;37.672;2023-04-21T09:51:11;99762.31;;;45.67;4.72
61906;BME280;47863;55.766;37.672;2023-04-21T09:53:39;99761.13;;;45.79;5.14
61906;BME280;47863;55.766;37.672;2023-04-21T09:56:10;99753.09;;;46.10;4.96
61906;BME280;47863;55.766;37.672;2023-04-21T09:58:42;99749.06;;;46.25;4.48
61906;BME280;47863;55.766;37.672;2023-04-21T10:01:09;99745.00;;;46.19;5.18
61906;BME280;47863;55.766;37.672;2023-04-21T10:03:37;99727.22;;;46.12;5.25
61906;BME280;47863;55.766;37.672;2023-04-21T10:06:04;99724.78;;;46.17;4.89
61906;BME280;47863;55.766;37.672;2023-04-21T10:08:30;99725.97;;;46.27;5.05
61906;BME280;47863;55.766;37.672;2023-04-21T10:10:57;99739.34;;;46.26;5.21
61906;BME280;47863;55.766;37.672;2023-04-21T10:13:24;99716.81;;;45.06;5.02
61906;BME280;47863;55.766;37.672;2023-04-21T10:16:00;99733.38;;;43.26;5.04
61906;BME280;47863;55.766;37.672;2023-04-21T10:18:27;99717.13;;;40.05;6.65
61906;BME280;47863;55.766;37.672;2023-04-21T10:21:06;99726.09;;;36.90;7.14
61906;BME280;47863;55.766;37.672;2023-04-21T10:23:45;99709.25;;;34.93;8.09
61906;BME280;47863;55.766;37.672;2023-04-21T10:26:22;99717.44;;;34.81;7.84
61906;BME280;47863;55.766;37.672;2023-04-21T10:28:59;99700.72;;;36.15;7.73
61906;BME280;47863;55.766;37.672;2023-04-21T10:31:35;99713.34;;;37.44;7.04
61906;BME280;47863;55.766;37.672;2023-04-21T10:36:29;99708.00;;;39.48;6.34
61906;BME280;47863;55.766;37.672;2023-04-21T10:38:55;99697.84;;;40.51;6.45
61906;BME280;47863;55.766;37.672;2023-04-21T10:41:28;99709.09;;;41.65;6.24
61906;BME280;47863;55.766;37.672;2023-04-21T10:44:01;99701.66;;;42.22;5.85
61906;BME280;47863;55.766;37.672;2023-04-21T10:46:44;99673.69;;;42.56;5.92
61906;BME280;47863;55.766;37.672;2023-04-21T10:49:21;99705.66;;;42.97;5.66
61906;BME280;47863;55.766;37.672;2023-04-21T10:55:04;99693.56;;;43.27;5.79
61906;BME280;47863;55.766;37.672;2023-04-21T10:57:34;99687.94;;;43.31;5.56
61906;BME280;47863;55.766;37.672;2023-04-21T11:00:00;99684.69;;;43.29;5.73
61906;BME280;47863;55.766;37.672;2023-04-21T11:02:29;99675.53;;;43.35;5.97
61906;BME280;47863;55.766;37.672;2023-04-21T11:04:54;99661.91;;;43.41;5.74
61906;BME280;47863;55.766;37.672;2023-04-21T11:07:22;99664.59;;;43.68;5.50
61906;BME280;47863;55.766;37.672;2023-04-21T11:10:02;99672.31;;;43.74;5.33
61906;BME280;47863;55.766;37.672;2023-04-21T11:12:39;99670.97;;;42.40;5.72
61906;BME280;47863;55.766;37.672;2023-04-21T11:15:07;99676.03;;;39.81;6.58
61906;BME280;47863;55.766;37.672;2023-04-21T11:17:34;99671.97;;;38.28;7.55
61906;BME280;47863;55.766;37.672;2023-04-21T11:20:00;99647.63;;;38.54;7.02
61906;BME280;47863;55.766;37.672;2023-04-21T11:22:29;99658.53;;;39.40;6.81
61906;BME280;47863;55.766;37.672;2023-04-21T11:24:56;99660.25;;;39.89;6.49
61906;BME280;47863;55.766;37.672;2023-04-21T11:27:22;99668.72;;;40.24;6.49
61906;BME280;47863;55.766;37.672;2023-04-21T11:29:50;99642.53;;;40.52;6.74
61906;BME280;47863;55.766;37.672;2023-04-21T11:32:16;99656.19;;;41.08;6.55
61906;BME280;47863;55.766;37.672;2023-04-21T11:34:42;99656.47;;;41.42;6.70
61906;BME280;47863;55.766;37.672;2023-04-21T11:37:12;99643.63;;;41.64;6.31
61906;BME280;47863;55.766;37.672;2023-04-21T11:39:42;99644.00;;;41.63;6.22
61906;BME280;47863;55.766;37.672;2023-04-21T11:42:08;99652.78;;;41.38;6.41
61906;BME280;47863;55.766;37.672;2023-04-21T11:44:41;99631.50;;;39.03;6.96
61906;BME280;47863;55.766;37.672;2023-04-21T11:47:18;99640.63;;;36.35;7.82
61906;BME280;47863;55.766;37.672;2023-04-21T11:52:11;99634.63;;;32.03;9.44
61906;BME280;47863;55.766;37.672;2023-04-21T11:54:37;99613.47;;;31.79;9.25
61906;BME280;47863;55.766;37.672;2023-04-21T11:57:04;99625.00;;;32.78;9.03
61906;BME280;47863;55.766;37.672;2023-04-21T11:59:31;99622.38;;;33.72;8.62
61906;BME280;47863;55.766;37.672;2023-04-21T12:01:57;99611.84;;;34.75;8.48
61906;BME280;47863;55.766;37.672;2023-04-21T12:04:24;99612.06;;;35.70;8.22
61906;BME280;47863;55.766;37.672;2023-04-21T12:07:01;99598.59;;;36.61;8.10
61906;BME280;47863;55.766;37.672;2023-04-21T12:09:28;99606.31;;;36.85;7.56
61906;BME280;47863;55.766;37.672;2023-04-21T12:11:56;99616.44;;;35.88;7.81
61906;BME280;47863;55.766;37.672;2023-04-21T12:14:23;99600.34;;;34.25;8.70
61906;BME280;47863;55.766;37.672;2023-04-21T12:16:52;99593.31;;;32.57;9.22
61906;BME280;47863;55.766;37.672;2023-04-21T12:19:34;99608.53;;;31.62;9.55
61906;BME280;47863;55.766;37.672;2023-04-21T12:22:00;99612.25;;;31.86;9.40
61906;BME280;47863;55.766;37.672;2023-04-21T12:24:26;99602.09;;;32.73;9.15
61906;BME280;47863;55.766;37.672;2023-04-21T12:26:53;99608.06;;;33.56;8.86
61906;BME280;47863;55.766;37.672;2023-04-21T12:29:18;99588.50;;;34.10;8.63
61906;BME280;47863;55.766;37.672;2023-04-21T12:31:44;99568.00;;;34.46;8.64
61906;BME280;47863;55.766;37.672;2023-04-21T12:34:10;99560.63;;;34.85;8.28
61906;BME280;47863;55.766;37.672;2023-04-21T12:36:35;99587.59;;;35.11;8.36
61906;BME280;47863;55.766;37.672;2023-04-21T12:39:01;99563.41;;;34.85;8.51
61906;BME280;47863;55.766;37.672;2023-04-21T12:41:27;99587.66;;;34.76;8.25
61906;BME280;47863;55.766;37.672;2023-04-21T12:43:52;99576.66;;;34.80;8.58
61906;BME280;47863;55.766;37.672;2023-04-21T12:46:18;99551.47;;;34.41;8.45
61906;BME280;47863;55.766;37.672;2023-04-21T12:48:44;99561.44;;;34.25;8.44
61906;BME280;47863;55.766;37.672;2023-04-21T12:51:09;99584.47;;;34.16;8.71
61906;BME280;47863;55.766;37.672;2023-04-21T12:53:35;99558.56;;;33.98;8.68
61906;BME280;47863;55.766;37.672;2023-04-21T12:56:02;99547.25;;;33.46;8.75
61906;BME280;47863;55.766;37.672;2023-04-21T12:58:28;99566.41;;;33.03;9.08
61906;BME280;47863;55.766;37.672;2023-04-21T13:00:53;99561.56;;;32.63;9.06
61906;BME280;47863;55.766;37.672;2023-04-21T13:03:19;99537.50;;;32.36;9.23
61906;BME280;47863;55.766;37.672;2023-04-21T13:05:46;99568.13;;;32.31;9.09
61906;BME280;47863;55.766;37.672;2023-04-21T13:08:12;99559.13;;;31.70;9.37